METAR Data
IDs: Format: Raw Decoded Include TAF

Data at: 0827 UTC 01 Aug 2021

UUEE 010800Z 20004MPS CAVOK 25/12 Q1010 R24C/CLRD62 R24R/CLRD62 NOSIG